Time;durP1;ratioP1;P1;durP2;ratioP2;P2;SDS_P1;SDS_P2;PMS_P1;PMS_P2;Temp;Humidity;BMP_temperature;BMP_pressure;BME280_temperature;BME280_humidity;BME280_pressure;Samples;Min_cycle;Max_cycle;Signal;HPM_P1;HPM_P2
2024/02/05 00:01:24;;;;;;;1.40;1.10;;;;;;;6.38;81.67;99817.96;111454;1212;137861;-72
2024/02/05 00:03:49;;;;;;;1.50;1.20;;;;;;;6.35;81.57;99817.36;111492;1210;97592;-73
2024/02/05 00:06:15;;;;;;;3.30;1.70;;;;;;;6.34;81.70;99812.77;111460;1212;138037;-73
2024/02/05 00:08:40;;;;;;;2.70;1.10;;;;;;;6.37;81.96;99819.07;111548;1211;97697;-73
2024/02/05 00:11:07;;;;;;;1.40;0.90;;;;;;;6.36;81.93;99811.48;111476;1209;139634;-72
2024/02/05 00:13:33;;;;;;;4.50;1.40;;;;;;;6.35;81.92;99801.23;111497;1222;97697;-73
2024/02/05 00:15:59;;;;;;;5.00;1.30;;;;;;;6.35;82.04;99813.63;111543;1212;97604;-72
2024/02/05 00:18:24;;;;;;;1.60;1.10;;;;;;;6.35;82.16;99791.47;111540;1212;137898;-72
2024/02/05 00:20:52;;;;;;;4.30;1.30;;;;;;;6.35;82.31;99794.46;111582;1206;97614;-73
2024/02/05 00:23:17;;;;;;;2.50;0.80;;;;;;;6.36;82.34;99798.31;111486;1211;138635;-73
2024/02/05 00:25:42;;;;;;;2.80;1.00;;;;;;;6.36;82.26;99807.73;111491;1212;96110;-72
2024/02/05 00:28:07;;;;;;;3.90;1.00;;;;;;;6.36;82.44;99808.78;111605;1206;97644;-73
2024/02/05 00:30:33;;;;;;;2.80;1.20;;;;;;;6.35;82.61;99795.19;111423;1206;138449;-73
2024/02/05 00:32:58;;;;;;;3.20;1.10;;;;;;;6.33;82.61;99789.94;111589;1206;97596;-73
2024/02/05 00:35:24;;;;;;;3.30;1.00;;;;;;;6.35;82.65;99788.63;111364;1206;138757;-72
2024/02/05 00:37:49;;;;;;;2.10;1.20;;;;;;;6.35;82.68;99781.52;111534;1212;97626;-72
2024/02/05 00:40:16;;;;;;;3.10;1.20;;;;;;;6.35;82.80;99798.04;111534;1218;97664;-72
2024/02/05 00:42:41;;;;;;;2.80;0.90;;;;;;;6.35;82.82;99784.02;111399;1211;138352;-72
2024/02/05 00:45:07;;;;;;;0.90;0.80;;;;;;;6.35;82.86;99781.89;111478;1211;97579;-73
2024/02/05 00:47:33;;;;;;;2.80;1.10;;;;;;;6.34;82.88;99776.58;111479;1209;141160;-73
2024/02/05 00:49:58;;;;;;;5.60;0.70;;;;;;;6.34;83.03;99778.72;111421;1206;97687;-73
2024/02/05 00:52:23;;;;;;;2.50;1.30;;;;;;;6.31;83.22;99780.25;111561;1211;96477;-72
2024/02/05 00:54:50;;;;;;;0.60;0.60;;;;;;;6.29;83.10;99756.77;111380;1206;138107;-72
2024/02/05 00:57:15;;;;;;;3.00;1.40;;;;;;;6.27;83.25;99761.46;111486;1212;97690;-72
2024/02/05 00:59:40;;;;;;;2.90;1.10;;;;;;;6.24;83.41;99762.46;111403;1212;138653;-73
2024/02/05 01:02:06;;;;;;;2.10;0.70;;;;;;;6.26;83.46;99754.38;111422;1212;98030;-73
2024/02/05 01:04:34;;;;;;;1.80;0.90;;;;;;;6.29;83.45;99762.80;111516;1211;97622;-73
2024/02/05 01:07:00;;;;;;;3.00;1.10;;;;;;;6.28;83.52;99757.13;111374;1206;139106;-72
2024/02/05 01:09:25;;;;;;;2.30;1.30;;;;;;;6.27;83.61;99751.49;111595;1212;97658;-73
2024/02/05 01:11:51;;;;;;;1.60;0.70;;;;;;;6.29;83.61;99752.14;111432;1212;138056;-72
2024/02/05 01:14:17;;;;;;;2.00;0.80;;;;;;;6.29;83.74;99741.14;111501;1212;97618;-73
2024/02/05 01:16:42;;;;;;;4.50;0.70;;;;;;;6.30;83.79;99730.10;111579;1212;97655;-73
2024/02/05 01:19:07;;;;;;;1.30;0.60;;;;;;;6.30;83.80;99734.34;111391;1206;139350;-73
2024/02/05 01:21:32;;;;;;;2.90;0.80;;;;;;;6.28;83.95;99725.75;111497;1211;97271;-73
2024/02/05 01:23:58;;;;;;;1.10;0.80;;;;;;;6.27;83.88;99724.91;111310;1212;138122;-73
2024/02/05 01:26:23;;;;;;;3.80;0.90;;;;;;;6.27;84.09;99713.89;111463;1212;100686;-73
2024/02/05 01:28:48;;;;;;;2.30;0.70;;;;;;;6.29;84.07;99717.02;111553;1211;98999;-72
2024/02/05 01:31:14;;;;;;;0.90;0.50;;;;;;;6.28;84.16;99711.89;111343;1206;137874;-73
2024/02/05 01:33:41;;;;;;;3.30;1.20;;;;;;;6.29;84.22;99713.28;111486;1209;97811;-72
2024/02/05 01:36:06;;;;;;;1.80;0.60;;;;;;;6.29;84.25;99725.90;111397;1209;138058;-72
2024/02/05 01:38:31;;;;;;;1.20;0.70;;;;;;;6.25;84.27;99726.73;111539;1212;97960;-72
2024/02/05 01:40:57;;;;;;;1.50;0.50;;;;;;;6.24;84.34;99723.23;111518;1206;97584;-72
2024/02/05 01:43:22;;;;;;;1.50;0.60;;;;;;;6.22;84.38;99713.76;111350;1212;138420;-72
2024/02/05 01:45:47;;;;;;;0.70;0.50;;;;;;;6.22;84.56;99716.41;111515;1223;97664;-73
2024/02/05 01:48:15;;;;;;;1.30;1.00;;;;;;;6.23;84.64;99717.59;111427;1212;137971;-72
2024/02/05 01:50:41;;;;;;;0.70;0.60;;;;;;;6.20;84.71;99719.86;111530;1206;107412;-72
2024/02/05 01:53:09;;;;;;;2.20;0.90;;;;;;;6.15;84.69;99716.85;111506;1212;97244;-72
2024/02/05 01:55:34;;;;;;;0.50;0.50;;;;;;;6.11;84.96;99714.89;111628;1206;97594;-72
2024/02/05 01:58:00;;;;;;;1.90;0.50;;;;;;;6.05;85.09;99706.77;111514;1212;96398;-72
2024/02/05 02:00:26;;;;;;;1.80;0.30;;;;;;;6.02;85.26;99711.36;111390;1212;137882;-72
2024/02/05 02:02:51;;;;;;;0.70;0.40;;;;;;;5.98;85.35;99711.54;111526;1206;97694;-72
2024/02/05 02:05:18;;;;;;;1.30;0.60;;;;;;;5.93;85.49;99704.60;111467;1207;138240;-72
2024/02/05 02:07:43;;;;;;;1.80;0.60;;;;;;;5.89;85.49;99697.32;111618;1206;99466;-73
2024/02/05 02:10:10;;;;;;;1.70;0.40;;;;;;;5.86;85.48;99695.46;111582;1206;98539;-72
2024/02/05 02:12:37;;;;;;;2.60;0.90;;;;;;;5.82;86.22;99692.59;111427;1206;139339;-74
2024/02/05 02:15:03;;;;;;;0.30;0.40;;;;;;;5.82;86.84;99692.60;111636;1207;97677;-73
2024/02/05 02:17:31;;;;;;;1.10;0.70;;;;;;;5.79;86.86;99691.50;111541;1206;138653;-73
2024/02/05 02:19:57;;;;;;;0.70;0.70;;;;;;;5.75;87.02;99684.73;111679;1208;107652;-73
2024/02/05 02:22:36;;;;;;;2.10;0.70;;;;;;;5.72;87.24;99685.39;111530;1212;99084;-74
2024/02/05 02:25:14;;;;;;;0.80;0.40;;;;;;;5.69;87.56;99694.91;111437;1209;138019;-73
2024/02/05 02:27:41;;;;;;;1.10;0.50;;;;;;;5.63;87.57;99685.38;111556;1208;109927;-74
2024/02/05 02:30:08;;;;;;;1.00;0.40;;;;;;;5.62;87.70;99679.58;111727;1206;138731;-73
2024/02/05 02:33:15;;;;;;;1.60;0.30;;;;;;;5.63;87.52;99682.00;111572;1206;97649;-74
2024/02/05 02:36:05;;;;;;;1.40;0.50;;;;;;;5.63;87.55;99678.81;111438;1209;138284;-74
2024/02/05 02:38:58;;;;;;;0.30;0.30;;;;;;;5.62;87.65;99679.02;111579;1206;97616;-74
2024/02/05 02:41:26;;;;;;;0.90;0.50;;;;;;;5.63;87.80;99680.95;111477;1210;140105;-74
2024/02/05 02:43:56;;;;;;;0.70;0.70;;;;;;;5.63;87.75;99676.35;111581;1209;99589;-74
2024/02/05 02:46:23;;;;;;;0.90;0.60;;;;;;;5.64;88.06;99674.02;111627;1209;107522;-74
2024/02/05 02:48:48;;;;;;;0.50;0.40;;;;;;;5.65;88.20;99673.44;111514;1206;138079;-73
2024/02/05 02:51:15;;;;;;;0.40;0.40;;;;;;;5.65;88.46;99669.20;111608;1208;97807;-74
2024/02/05 02:53:40;;;;;;;1.60;0.40;;;;;;;5.64;88.70;99664.43;111555;1206;139405;-74
2024/02/05 02:56:06;;;;;;;2.10;0.50;;;;;;;5.66;88.86;99669.14;111547;1212;106243;-74
2024/02/05 02:58:31;;;;;;;0.60;0.50;;;;;;;5.67;88.91;99669.09;111576;1212;97699;-74
2024/02/05 03:00:57;;;;;;;0.40;0.40;;;;;;;5.69;89.00;99667.59;111513;1206;138176;-74
2024/02/05 03:03:23;;;;;;;2.20;0.60;;;;;;;5.70;88.94;99670.21;111535;1211;97650;-74
2024/02/05 03:05:49;;;;;;;0.80;0.50;;;;;;;5.69;89.06;99655.38;111375;1206;138183;-73
2024/02/05 03:08:14;;;;;;;1.10;0.70;;;;;;;5.72;89.18;99658.59;111544;1210;97647;-74
2024/02/05 03:10:39;;;;;;;4.80;0.60;;;;;;;5.71;89.11;99652.99;111500;1207;98120;-74
2024/02/05 03:13:04;;;;;;;1.10;0.40;;;;;;;5.70;89.21;99647.34;111409;1206;137752;-74
2024/02/05 03:15:30;;;;;;;0.60;0.50;;;;;;;5.71;89.28;99649.25;111436;1208;97601;-74
2024/02/05 03:18:00;;;;;;;0.40;0.40;;;;;;;5.72;89.50;99647.25;111401;1212;140113;-74
2024/02/05 03:20:37;;;;;;;1.60;0.50;;;;;;;5.72;89.60;99648.85;111549;1212;110306;-74
2024/02/05 03:23:04;;;;;;;1.10;0.40;;;;;;;5.69;89.51;99643.30;111515;1206;99625;-74
2024/02/05 03:25:30;;;;;;;1.30;0.70;;;;;;;5.69;89.70;99649.16;111482;1210;138443;-76
2024/02/05 03:27:56;;;;;;;0.80;0.50;;;;;;;5.70;89.77;99651.61;111550;1208;97690;-74
2024/02/05 03:30:22;;;;;;;1.20;0.40;;;;;;;5.71;89.81;99659.18;111321;1206;137913;-74
2024/02/05 03:32:47;;;;;;;0.40;0.40;;;;;;;5.71;90.17;99664.15;111546;1209;99482;-74
2024/02/05 03:35:15;;;;;;;0.70;0.50;;;;;;;5.70;90.13;99667.91;111359;1206;138906;-73
2024/02/05 03:37:41;;;;;;;0.70;0.40;;;;;;;5.70;90.37;99664.89;111561;1206;97756;-74
2024/02/05 03:40:07;;;;;;;0.50;0.50;;;;;;;5.72;90.42;99663.59;111592;1206;97772;-75
2024/02/05 03:42:33;;;;;;;0.30;0.30;;;;;;;5.73;90.51;99664.23;111347;1206;138186;-75
2024/02/05 03:44:58;;;;;;;0.90;0.50;;;;;;;5.73;90.68;99667.44;111555;1210;97729;-74
2024/02/05 03:47:23;;;;;;;1.00;0.60;;;;;;;5.73;90.74;99663.35;111392;1206;138081;-75
2024/02/05 03:49:49;;;;;;;0.50;0.50;;;;;;;5.74;91.11;99657.48;111524;1206;97674;-74
2024/02/05 03:52:14;;;;;;;1.10;0.60;;;;;;;5.76;91.10;99665.56;111580;1211;96467;-74
2024/02/05 03:54:39;;;;;;;0.60;0.30;;;;;;;5.78;91.19;99664.05;111387;1212;138274;-74
2024/02/05 03:57:05;;;;;;;1.10;0.20;;;;;;;5.78;91.57;99655.89;111503;1209;97348;-74
2024/02/05 03:59:31;;;;;;;0.60;0.30;;;;;;;5.79;91.63;99657.46;111423;1210;138306;-74
2024/02/05 04:01:56;;;;;;;0.70;0.50;;;;;;;5.80;91.79;99655.45;111527;1206;98918;-74
2024/02/05 04:04:21;;;;;;;0.40;0.30;;;;;;;5.82;91.97;99654.14;111581;1212;97579;-75
2024/02/05 04:06:47;;;;;;;0.60;0.50;;;;;;;5.84;91.96;99653.01;111450;1210;137721;-75
2024/02/05 04:09:12;;;;;;;1.30;0.50;;;;;;;5.84;92.71;99650.48;111484;1212;98644;-74
2024/02/05 04:11:39;;;;;;;1.20;0.30;;;;;;;5.86;93.14;99653.42;111450;1206;137975;-74
2024/02/05 04:14:06;;;;;;;0.30;0.30;;;;;;;5.88;92.57;99654.96;111491;1206;97909;-74
2024/02/05 04:16:32;;;;;;;0.30;0.30;;;;;;;5.88;92.39;99646.30;111538;1209;97580;-75
2024/02/05 04:18:59;;;;;;;0.30;0.30;;;;;;;5.90;92.63;99643.20;111361;1212;137775;-74
2024/02/05 04:21:24;;;;;;;0.60;0.20;;;;;;;5.92;92.83;99639.96;111604;1206;97709;-75
2024/02/05 04:23:49;;;;;;;0.40;0.40;;;;;;;5.93;92.86;99647.00;111428;1206;138532;-74
2024/02/05 04:26:16;;;;;;;0.30;0.30;;;;;;;5.94;92.96;99650.86;111515;1212;96458;-75
2024/02/05 04:28:41;;;;;;;1.20;0.50;;;;;;;5.96;93.07;99647.58;111564;1206;97704;-75
2024/02/05 04:31:07;;;;;;;0.40;0.40;;;;;;;5.98;93.20;99646.23;111397;1206;137899;-75
2024/02/05 04:33:32;;;;;;;0.90;0.40;;;;;;;6.01;93.32;99646.85;111530;1206;99062;-75
2024/02/05 04:35:57;;;;;;;0.60;0.40;;;;;;;6.02;93.35;99647.49;111474;1211;139443;-75
2024/02/05 04:38:23;;;;;;;0.50;0.40;;;;;;;6.02;93.29;99634.59;111571;1206;97657;-75
2024/02/05 04:40:49;;;;;;;4.70;1.00;;;;;;;6.02;93.45;99630.82;111572;1212;97471;-74
2024/02/05 04:43:14;;;;;;;1.60;0.80;;;;;;;6.04;93.57;99625.80;111472;1210;138089;-75
2024/02/05 04:45:39;;;;;;;0.80;0.40;;;;;;;6.05;93.60;99628.94;111532;1206;97677;-75
2024/02/05 04:48:05;;;;;;;0.70;0.50;;;;;;;6.06;93.76;99622.36;111456;1210;140132;-75
2024/02/05 04:50:30;;;;;;;1.60;0.30;;;;;;;6.08;93.90;99627.39;111600;1206;97711;-75
2024/02/05 04:52:56;;;;;;;0.50;0.50;;;;;;;6.10;93.91;99619.67;111612;1211;97611;-75
2024/02/05 04:55:21;;;;;;;2.60;0.50;;;;;;;6.14;94.15;99615.63;111463;1209;138643;-75
2024/02/05 04:57:48;;;;;;;0.60;0.30;;;;;;;6.15;94.12;99617.34;111498;1212;97709;-75
2024/02/05 05:00:21;;;;;;;3.90;0.30;;;;;;;6.17;94.21;99625.59;111373;1206;137858;-75
2024/02/05 05:02:46;;;;;;;0.30;0.20;;;;;;;6.20;94.39;99627.45;111563;1208;110550;-75
2024/02/05 05:05:11;;;;;;;0.60;0.20;;;;;;;6.22;94.62;99632.12;111431;1206;138235;-74
2024/02/05 05:07:37;;;;;;;0.20;0.20;;;;;;;6.26;94.58;99643.69;111559;1212;97675;-75
2024/02/05 05:10:02;;;;;;;0.10;0.10;;;;;;;6.29;94.72;99646.39;111533;1210;98317;-75
2024/02/05 05:12:28;;;;;;;0.20;0.20;;;;;;;6.32;94.81;99648.73;111513;1211;138580;-75
2024/02/05 05:14:53;;;;;;;0.50;0.30;;;;;;;6.35;94.68;99640.27;111502;1209;97590;-75
2024/02/05 05:17:18;;;;;;;1.90;0.50;;;;;;;6.39;94.70;99644.20;111369;1206;137970;-74
2024/02/05 05:19:44;;;;;;;0.40;0.40;;;;;;;6.41;94.57;99641.45;111547;1206;97711;-74
2024/02/05 05:22:09;;;;;;;0.30;0.30;;;;;;;6.43;94.72;99647.22;111482;1205;97686;-75
2024/02/05 05:24:36;;;;;;;0.20;0.10;;;;;;;6.46;94.78;99646.89;111375;1206;137991;-74
2024/02/05 05:27:01;;;;;;;0.60;0.30;;;;;;;6.50;94.84;99650.98;111389;1206;97580;-74
2024/02/05 05:29:27;;;;;;;0.10;0.10;;;;;;;6.53;94.89;99656.91;111428;1208;137998;-74
2024/02/05 05:31:52;;;;;;;0.90;0.30;;;;;;;6.54;94.97;99657.93;111568;1206;97594;-74
2024/02/05 05:34:19;;;;;;;0.40;0.30;;;;;;;6.56;95.00;99666.89;111418;1206;97626;-74
2024/02/05 05:36:44;;;;;;;1.20;0.30;;;;;;;6.57;95.06;99658.14;111406;1209;138405;-74
2024/02/05 05:39:09;;;;;;;2.20;0.40;;;;;;;6.59;95.02;99666.96;111544;1208;97735;-74
2024/02/05 05:41:35;;;;;;;0.40;0.30;;;;;;;6.59;95.13;99674.76;111377;1206;138972;-75
2024/02/05 05:44:03;;;;;;;0.40;0.30;;;;;;;6.60;95.09;99679.14;111531;1206;99018;-76
2024/02/05 05:46:28;;;;;;;0.70;0.30;;;;;;;6.61;95.16;99663.13;111539;1207;111115;-75
2024/02/05 05:48:55;;;;;;;4.00;0.40;;;;;;;6.62;95.29;99661.13;111464;1209;139040;-75
2024/02/05 05:51:21;;;;;;;0.60;0.20;;;;;;;6.63;95.29;99670.48;111521;1206;97692;-75
2024/02/05 05:53:47;;;;;;;0.20;0.20;;;;;;;6.63;95.25;99674.39;111450;1211;138299;-75
2024/02/05 05:56:12;;;;;;;0.10;0.10;;;;;;;6.65;95.27;99689.95;111507;1209;97575;-75
2024/02/05 05:58:37;;;;;;;1.20;0.50;;;;;;;6.64;95.31;99696.39;111521;1219;97613;-75
2024/02/05 06:01:05;;;;;;;0.30;0.20;;;;;;;6.61;95.40;99706.80;111408;1209;138514;-77
2024/02/05 06:03:31;;;;;;;0.20;0.20;;;;;;;6.60;95.51;99703.46;111624;1209;98050;-77
2024/02/05 06:05:59;;;;;;;1.40;0.70;;;;;;;6.60;95.61;99705.61;111466;1209;138116;-77
2024/02/05 06:08:24;;;;;;;0.50;0.40;;;;;;;6.59;95.70;99702.27;111525;1211;97639;-76
2024/02/05 06:10:50;;;;;;;1.40;0.60;;;;;;;6.57;95.76;99704.30;111596;1209;96485;-76
2024/02/05 06:13:15;;;;;;;0.90;0.30;;;;;;;6.57;95.70;99712.13;111474;1209;138173;-77
2024/02/05 06:15:40;;;;;;;1.10;0.20;;;;;;;6.57;95.99;99702.37;111539;1211;98046;-76
2024/02/05 06:18:06;;;;;;;2.00;0.50;;;;;;;6.56;95.96;99704.52;111457;1207;137935;-76
2024/02/05 06:20:32;;;;;;;0.70;0.30;;;;;;;6.55;95.90;99709.17;111566;1210;97719;-74
2024/02/05 06:22:57;;;;;;;1.10;0.60;;;;;;;6.54;95.93;99709.05;111677;1206;97577;-74
2024/02/05 06:25:23;;;;;;;0.60;0.50;;;;;;;6.56;96.03;99717.32;111401;1206;138186;-75
2024/02/05 06:27:49;;;;;;;0.70;0.40;;;;;;;6.56;96.12;99720.33;111537;1210;100329;-74
2024/02/05 06:30:14;;;;;;;0.60;0.40;;;;;;;6.58;96.10;99727.18;111491;1205;139431;-74
2024/02/05 06:32:43;;;;;;;0.30;0.30;;;;;;;6.58;96.26;99727.68;111582;1208;99177;-74
2024/02/05 06:35:08;;;;;;;2.50;0.50;;;;;;;6.59;96.35;99730.33;111582;1206;99586;-75
2024/02/05 06:37:34;;;;;;;1.10;0.90;;;;;;;6.60;96.40;99729.23;111447;1211;137700;-75
2024/02/05 06:39:59;;;;;;;0.70;0.60;;;;;;;6.61;96.39;99729.73;111579;1206;98263;-75
2024/02/05 06:42:25;;;;;;;1.70;0.60;;;;;;;6.61;96.36;99722.96;111416;1206;138838;-75
2024/02/05 06:44:51;;;;;;;1.30;0.50;;;;;;;6.62;96.57;99725.41;111619;1209;97946;-75
2024/02/05 06:47:16;;;;;;;1.10;0.60;;;;;;;6.61;96.55;99732.00;111521;1206;138066;-75
2024/02/05 06:49:41;;;;;;;1.30;0.50;;;;;;;6.60;96.55;99729.22;111486;1206;97609;-74
2024/02/05 06:52:07;;;;;;;0.60;0.50;;;;;;;6.62;96.73;99732.14;111597;1209;98076;-74
2024/02/05 06:54:33;;;;;;;1.70;0.80;;;;;;;6.65;96.81;99741.08;111410;1217;138476;-74
2024/02/05 06:57:00;;;;;;;0.70;0.60;;;;;;;6.68;97.04;99743.27;111488;1205;97692;-73
2024/02/05 06:59:27;;;;;;;0.80;0.50;;;;;;;6.70;96.90;99755.23;111500;1206;138500;-73
2024/02/05 07:01:52;;;;;;;1.70;0.90;;;;;;;6.70;96.86;99757.53;111621;1205;98928;-72
2024/02/05 07:04:18;;;;;;;2.00;1.10;;;;;;;6.71;96.99;99755.73;111537;1206;97776;-73
2024/02/05 07:06:43;;;;;;;2.20;1.10;;;;;;;6.71;96.97;99757.32;111366;1206;138121;-74
2024/02/05 07:09:08;;;;;;;2.80;0.90;;;;;;;6.73;97.04;99761.52;111643;1206;97694;-74
2024/02/05 07:11:36;;;;;;;3.50;1.80;;;;;;;6.72;97.08;99760.49;111424;1209;138061;-73
2024/02/05 07:14:01;;;;;;;1.90;0.80;;;;;;;6.71;97.03;99766.04;111395;1206;97645;-73
2024/02/05 07:16:26;;;;;;;0.70;0.70;;;;;;;6.73;97.02;99767.73;111517;1205;97578;-74
2024/02/05 07:18:51;;;;;;;1.00;0.80;;;;;;;6.74;97.08;99777.09;111348;1211;141318;-74
2024/02/05 07:21:17;;;;;;;2.70;0.70;;;;;;;6.74;97.06;99790.77;111502;1209;97575;-73
2024/02/05 07:23:44;;;;;;;1.70;0.80;;;;;;;6.75;97.19;99782.16;111307;1206;139497;-74
2024/02/05 07:26:10;;;;;;;1.40;0.50;;;;;;;6.77;97.05;99791.17;111468;1209;97712;-73
2024/02/05 07:28:35;;;;;;;0.70;0.30;;;;;;;6.77;97.10;99791.85;111500;1210;97648;-74
2024/02/05 07:31:00;;;;;;;1.20;0.50;;;;;;;6.79;97.14;99789.30;111419;1206;139204;-74
2024/02/05 07:33:26;;;;;;;1.40;0.30;;;;;;;6.80;97.23;99795.64;111402;1209;97675;-74
2024/02/05 07:35:51;;;;;;;0.80;0.40;;;;;;;6.81;97.11;99801.08;111414;1209;138398;-74
2024/02/05 07:38:16;;;;;;;0.50;0.40;;;;;;;6.84;97.15;99807.55;111445;1206;97593;-74
2024/02/05 07:40:43;;;;;;;1.90;0.70;;;;;;;6.86;97.05;99800.57;111479;1206;97750;-74
2024/02/05 07:43:08;;;;;;;1.10;0.70;;;;;;;6.89;97.20;99799.38;111441;1209;138204;-76
2024/02/05 07:45:34;;;;;;;0.50;0.50;;;;;;;6.92;97.22;99806.34;111527;1206;97672;-75
2024/02/05 07:48:00;;;;;;;1.60;1.10;;;;;;;6.94;97.27;99809.27;111411;1206;138225;-68
2024/02/05 07:50:25;;;;;;;1.60;0.60;;;;;;;6.96;97.19;99801.39;111760;1206;97600;-72
2024/02/05 07:52:50;;;;;;;2.90;0.90;;;;;;;6.97;97.35;99802.91;111565;1206;97661;-70
2024/02/05 07:55:16;;;;;;;1.50;0.60;;;;;;;7.00;97.32;99801.58;111477;1209;138099;-75
2024/02/05 07:57:42;;;;;;;4.00;1.10;;;;;;;7.04;97.35;99803.18;111447;1206;107450;-70
2024/02/05 08:00:08;;;;;;;1.50;0.60;;;;;;;7.05;97.28;99803.49;111337;1212;138427;-70
2024/02/05 08:02:34;;;;;;;1.60;0.90;;;;;;;7.05;97.39;99810.95;111612;1206;97425;-71
2024/02/05 08:05:00;;;;;;;4.90;0.90;;;;;;;7.06;97.38;99819.42;111523;1209;99455;-72
2024/02/05 08:07:25;;;;;;;2.60;0.70;;;;;;;7.08;97.35;99810.46;111356;1206;137822;-72
2024/02/05 08:09:51;;;;;;;1.50;0.70;;;;;;;7.10;97.23;99821.77;111590;1205;96849;-71
2024/02/05 08:12:18;;;;;;;1.60;0.50;;;;;;;7.10;97.27;99814.29;111354;1206;138198;-72
2024/02/05 08:14:43;;;;;;;0.70;0.30;;;;;;;7.10;97.21;99815.00;111657;1206;97565;-70
2024/02/05 08:17:08;;;;;;;1.50;0.50;;;;;;;7.09;97.15;99828.16;111556;1206;98440;-70
2024/02/05 08:19:34;;;;;;;0.80;0.40;;;;;;;7.11;97.09;99822.61;111343;1210;138933;-71
2024/02/05 08:22:01;;;;;;;0.70;0.30;;;;;;;7.11;97.07;99827.94;111288;1212;97730;-70
2024/02/05 08:24:27;;;;;;;1.30;0.70;;;;;;;7.10;97.02;99819.97;111282;1219;138211;-70
2024/02/05 08:26:52;;;;;;;1.20;0.60;;;;;;;7.08;97.04;99830.69;111499;1210;97643;-70
2024/02/05 08:29:18;;;;;;;2.70;0.70;;;;;;;7.07;96.99;99825.79;111273;1205;139353;-70
2024/02/05 08:31:44;;;;;;;0.60;0.50;;;;;;;7.07;96.93;99822.75;111367;1208;97280;-71
2024/02/05 08:34:10;;;;;;;2.40;0.50;;;;;;;7.08;96.96;99816.84;111385;1212;97683;-70
2024/02/05 08:36:35;;;;;;;2.00;0.50;;;;;;;7.08;96.89;99821.10;111263;1211;139060;-70
2024/02/05 08:39:00;;;;;;;2.20;0.50;;;;;;;7.08;96.88;99827.14;111414;1206;97604;-70
2024/02/05 08:41:25;;;;;;;0.80;0.70;;;;;;;7.07;96.71;99823.65;111312;1206;138325;-70
2024/02/05 08:43:51;;;;;;;1.40;0.70;;;;;;;7.05;96.78;99824.27;111404;1208;97340;-71
2024/02/05 08:46:16;;;;;;;6.10;1.00;;;;;;;7.04;96.78;99829.25;111464;1210;97683;-68
2024/02/05 08:48:41;;;;;;;2.50;0.70;;;;;;;7.03;96.79;99823.98;111270;1212;138124;-70
2024/02/05 08:51:07;;;;;;;2.20;0.90;;;;;;;7.03;96.78;99833.07;111451;1206;97723;-70
2024/02/05 08:53:33;;;;;;;3.00;0.70;;;;;;;7.05;96.93;99835.45;111266;1208;137919;-69
2024/02/05 08:55:59;;;;;;;1.60;0.70;;;;;;;7.09;96.97;99835.48;111360;1206;96502;-69
2024/02/05 08:58:24;;;;;;;3.20;0.90;;;;;;;7.11;97.01;99835.02;111518;1206;97575;-69
2024/02/05 09:00:51;;;;;;;2.40;1.00;;;;;;;7.13;96.89;99840.27;111199;1208;138678;-71
2024/02/05 09:03:17;;;;;;;0.40;0.40;;;;;;;7.13;96.76;99849.86;111459;1212;97754;-67
2024/02/05 09:05:47;;;;;;;2.40;1.00;;;;;;;7.11;96.66;99854.94;110719;1207;138354;-70
2024/02/05 09:08:12;;;;;;;2.90;0.90;;;;;;;7.09;96.70;99844.87;110841;1206;111572;-71
2024/02/05 09:10:37;;;;;;;1.50;0.80;;;;;;;7.09;96.81;99847.19;110825;1212;97662;-69
2024/02/05 09:13:03;;;;;;;1.20;0.80;;;;;;;7.08;96.93;99847.91;111283;1220;138106;-70
2024/02/05 09:15:29;;;;;;;1.20;0.60;;;;;;;7.08;96.88;99846.36;111445;1210;98324;-69
2024/02/05 09:17:55;;;;;;;2.90;0.70;;;;;;;7.06;96.88;99859.56;111382;1206;138811;-71
2024/02/05 09:20:20;;;;;;;2.20;0.80;;;;;;;7.03;96.85;99844.98;111329;1212;107763;-71
2024/02/05 09:22:47;;;;;;;3.00;0.70;;;;;;;7.00;96.89;99845.61;111372;1210;97339;-71
2024/02/05 09:25:13;;;;;;;3.00;0.70;;;;;;;7.00;96.95;99836.19;111272;1208;138208;-70
2024/02/05 09:27:38;;;;;;;1.60;0.70;;;;;;;7.00;96.86;99838.33;111083;1206;98078;-71
2024/02/05 09:30:04;;;;;;;1.00;0.70;;;;;;;6.97;96.75;99841.65;110893;1210;138174;-71
2024/02/05 09:32:30;;;;;;;0.90;0.40;;;;;;;6.95;96.77;99839.98;111392;1206;97590;-70
2024/02/05 09:34:57;;;;;;;2.50;0.80;;;;;;;6.93;96.83;99845.90;111501;1206;98330;-69
2024/02/05 09:37:23;;;;;;;1.80;0.70;;;;;;;6.94;96.79;99850.67;110680;1210;139748;-70
2024/02/05 09:39:48;;;;;;;1.70;0.70;;;;;;;6.91;96.79;99845.66;110807;1210;97597;-70
2024/02/05 09:42:14;;;;;;;1.80;0.70;;;;;;;6.87;96.77;99841.17;110774;1210;139307;-69
2024/02/05 09:44:39;;;;;;;4.00;0.70;;;;;;;6.85;96.81;99842.14;110912;1206;98122;-70
2024/02/05 09:47:07;;;;;;;1.80;0.50;;;;;;;6.84;96.85;99841.11;111422;1208;97691;-70
2024/02/05 09:49:35;;;;;;;1.50;0.70;;;;;;;6.84;96.88;99836.86;111363;1210;138341;-70
2024/02/05 09:52:03;;;;;;;1.10;0.40;;;;;;;6.84;96.87;99847.86;111323;1210;98206;-70
2024/02/05 09:54:29;;;;;;;1.10;0.40;;;;;;;6.81;96.75;99840.37;111281;1208;138190;-70
2024/02/05 09:56:54;;;;;;;0.60;0.50;;;;;;;6.78;96.79;99844.90;111426;1207;97578;-70
2024/02/05 09:59:20;;;;;;;2.10;0.40;;;;;;;6.77;96.74;99862.53;111282;1210;138289;-71
2024/02/05 10:01:45;;;;;;;2.30;0.40;;;;;;;6.74;96.78;99854.30;111348;1212;97768;-68
2024/02/05 10:04:12;;;;;;;0.60;0.50;;;;;;;6.75;96.91;99847.70;111297;1212;97764;-68
2024/02/05 10:06:41;;;;;;;0.90;0.60;;;;;;;6.75;96.97;99849.14;111287;1206;138368;-68
2024/02/05 10:09:10;;;;;;;3.40;1.00;;;;;;;6.74;96.84;99842.77;111327;1210;97603;-69
2024/02/05 10:11:41;;;;;;;2.60;0.80;;;;;;;6.75;96.97;99845.75;111215;1211;139386;-69
2024/02/05 10:14:06;;;;;;;2.30;0.70;;;;;;;6.76;96.95;99845.90;110740;1208;98594;-70
2024/02/05 10:16:34;;;;;;;2.10;0.60;;;;;;;6.73;97.01;99840.84;110934;1206;97789;-70
2024/02/05 10:18:59;;;;;;;1.70;0.90;;;;;;;6.74;97.06;99849.70;111042;1210;138656;-69
2024/02/05 10:21:25;;;;;;;5.20;1.50;;;;;;;6.77;97.22;99849.21;111252;1205;98223;-68
2024/02/05 10:23:54;;;;;;;1.90;0.90;;;;;;;6.78;97.16;99841.89;111317;1208;138155;-68
2024/02/05 10:26:22;;;;;;;2.90;0.80;;;;;;;6.80;97.35;99851.03;111379;1206;111577;-69
2024/02/05 10:28:47;;;;;;;3.90;1.00;;;;;;;6.83;97.29;99847.36;111438;1206;99562;-69
2024/02/05 10:31:14;;;;;;;1.80;0.90;;;;;;;6.86;97.28;99852.06;111226;1206;138338;-69
2024/02/05 10:33:40;;;;;;;2.50;1.00;;;;;;;6.84;97.22;99842.89;110931;1218;97635;-70
2024/02/05 10:36:06;;;;;;;1.90;0.70;;;;;;;6.86;97.19;99838.55;110659;1211;139701;-69
2024/02/05 10:38:36;;;;;;;5.70;0.90;;;;;;;6.88;97.40;99837.94;110871;1210;97657;-69
2024/02/05 10:41:02;;;;;;;0.60;0.50;;;;;;;6.89;97.34;99837.39;110700;1206;108405;-70
2024/02/05 10:43:27;;;;;;;2.60;0.80;;;;;;;6.89;97.26;99835.44;110740;1206;139372;-68
2024/02/05 10:45:57;;;;;;;8.70;1.00;;;;;;;6.88;97.31;99835.83;111152;1206;97647;-70
2024/02/05 10:48:24;;;;;;;2.30;0.90;;;;;;;6.90;97.45;99822.05;111369;1206;138686;-71
2024/02/05 10:50:50;;;;;;;1.20;0.40;;;;;;;6.93;97.39;99830.27;111524;1206;98859;-70
2024/02/05 10:53:15;;;;;;;2.00;0.50;;;;;;;6.90;97.29;99822.77;111348;1210;140100;-69
2024/02/05 10:55:44;;;;;;;1.10;0.50;;;;;;;6.90;97.27;99828.27;111585;1205;97581;-70
2024/02/05 10:58:13;;;;;;;2.80;0.80;;;;;;;6.92;97.32;99824.44;111440;1208;99553;-69
2024/02/05 11:00:40;;;;;;;1.40;1.10;;;;;;;6.94;97.40;99819.74;111458;1206;138037;-70
2024/02/05 11:03:08;;;;;;;3.70;0.80;;;;;;;6.96;97.38;99826.23;110757;1206;97861;-68
2024/02/05 11:05:35;;;;;;;1.10;0.60;;;;;;;6.98;97.44;99826.69;111216;1208;139701;-69
2024/02/05 11:08:07;;;;;;;3.10;1.00;;;;;;;6.97;97.28;99834.02;111204;1210;97696;-68
2024/02/05 11:10:37;;;;;;;2.40;0.90;;;;;;;6.96;97.32;99826.45;110970;1210;100063;-68
2024/02/05 11:13:04;;;;;;;2.00;1.00;;;;;;;6.97;97.47;99825.84;110553;1210;139373;-68
2024/02/05 11:15:34;;;;;;;2.90;1.30;;;;;;;6.98;97.41;99825.61;111383;1206;97658;-68
2024/02/05 11:18:05;;;;;;;2.40;0.80;;;;;;;6.98;97.46;99823.48;111462;1206;138008;-69
2024/02/05 11:20:31;;;;;;;;;;;;;;;6.98;97.47;99823.33;111541;1208;112237;-69
2024/02/05 11:22:59;;;;;;;2.30;1.10;;;;;;;6.97;97.45;99818.77;111521;1210;98522;-70
2024/02/05 11:25:25;;;;;;;6.40;1.10;;;;;;;6.96;97.43;99816.45;111377;1210;138109;-70